Time;durP1;ratioP1;P1;durP2;ratioP2;P2;SDS_P1;SDS_P2;PMS_P1;PMS_P2;Temp;Humidity;BMP_temperature;BMP_pressure;BME280_temperature;BME280_humidity;BME280_pressure;Samples;Min_cycle;Max_cycle;Signal;HPM_P1;HPM_P2
2023/02/28 00:01:15;;;;;;;7.68;4.43;;;-0.70;99.90;;;;;;4995906;28;20099;-77
2023/02/28 00:03:41;;;;;;;7.55;3.88;;;-0.20;99.90;;;;;;4995864;28;20547;-77
2023/02/28 00:06:07;;;;;;;7.38;4.28;;;-0.40;99.90;;;;;;5007178;28;20087;-77
2023/02/28 00:08:33;;;;;;;8.65;4.20;;;-0.70;99.90;;;;;;4993924;28;20088;-76
2023/02/28 00:11:03;;;;;;;6.15;4.03;;;-0.70;99.90;;;;;;5005398;28;20540;-78
2023/02/28 00:13:28;;;;;;;4.93;3.30;;;-0.70;99.90;;;;;;5021514;28;20017;-77
2023/02/28 00:16:21;;;;;;;7.72;3.65;;;-0.70;99.90;;;;;;5005813;28;20036;-77
2023/02/28 00:18:50;;;;;;;6.63;3.97;;;-0.80;99.90;;;;;;5019443;28;20508;-77
2023/02/28 00:21:16;;;;;;;7.80;3.67;;;-0.80;99.90;;;;;;5008346;28;20079;-77
2023/02/28 00:23:42;;;;;;;8.20;3.58;;;-0.70;99.90;;;;;;5008103;28;20040;-77
2023/02/28 00:26:07;;;;;;;9.55;3.90;;;-0.80;99.90;;;;;;4995622;28;20152;-77
2023/02/28 00:28:33;;;;;;;6.53;3.92;;;-0.80;99.90;;;;;;5004665;28;20033;-77
2023/02/28 00:30:59;;;;;;;5.93;3.42;;;-0.90;99.90;;;;;;5003723;28;20037;-77
2023/02/28 00:33:25;;;;;;;9.75;4.15;;;-1.00;99.90;;;;;;5005470;28;20030;-77
2023/02/28 00:35:51;;;;;;;7.68;3.95;;;-1.00;99.90;;;;;;4996899;28;20120;-77
2023/02/28 00:38:16;;;;;;;5.25;4.25;;;-1.10;99.90;;;;;;5018899;28;20810;-78
2023/02/28 00:40:42;;;;;;;4.93;3.88;;;-1.10;99.90;;;;;;5024899;28;20025;-77
2023/02/28 00:43:07;;;;;;;8.30;4.20;;;-1.10;99.90;;;;;;4992935;28;20033;-77
2023/02/28 00:45:33;;;;;;;7.18;3.75;;;-1.00;99.90;;;;;;5006168;28;20487;-77
2023/02/28 00:47:59;;;;;;;7.15;4.03;;;-1.10;99.90;;;;;;4989429;28;20051;-77
2023/02/28 00:50:24;;;;;;;7.15;3.75;;;-1.10;99.90;;;;;;4993297;28;20040;-77
2023/02/28 00:52:50;;;;;;;6.35;3.70;;;-1.10;99.90;;;;;;5020096;28;20029;-77
2023/02/28 00:55:15;;;;;;;8.07;4.15;;;-1.10;99.90;;;;;;5022829;28;20025;-77
2023/02/28 00:57:41;;;;;;;6.90;3.60;;;-1.10;99.90;;;;;;5007546;28;20063;-77
2023/02/28 01:00:09;;;;;;;9.88;3.60;;;-1.10;99.90;;;;;;5022205;28;20044;-77
2023/02/28 01:02:35;;;;;;;5.60;3.80;;;-1.20;99.90;;;;;;5010892;28;20037;-78
2023/02/28 01:05:00;;;;;;;5.63;3.65;;;-1.30;99.90;;;;;;5002999;28;20076;-78
2023/02/28 01:07:26;;;;;;;9.23;4.38;;;-1.30;99.90;;;;;;5017665;28;20071;-78
2023/02/28 01:09:51;;;;;;;8.95;4.10;;;-1.40;99.90;;;;;;5013841;28;20029;-77
2023/02/28 01:12:17;;;;;;;4.95;3.72;;;-1.40;99.90;;;;;;5022176;28;20028;-77
2023/02/28 01:14:42;;;;;;;8.48;3.75;;;-1.60;99.90;;;;;;5037144;28;20032;-77
2023/02/28 01:17:08;;;;;;;7.10;4.18;;;-1.70;99.90;;;;;;5012106;28;20091;-77
2023/02/28 01:19:34;;;;;;;8.05;4.10;;;-1.70;99.90;;;;;;4996258;28;20033;-78
2023/02/28 01:22:03;;;;;;;6.45;3.95;;;-1.80;99.90;;;;;;5022799;28;20029;-77
2023/02/28 01:24:29;;;;;;;5.18;3.67;;;-1.60;99.90;;;;;;5007355;28;20148;-76
2023/02/28 01:26:54;;;;;;;8.25;3.70;;;-1.60;99.90;;;;;;5018585;28;20490;-77
2023/02/28 01:29:20;;;;;;;11.93;3.90;;;-1.60;99.90;;;;;;5004261;28;20063;-77
2023/02/28 01:31:45;;;;;;;7.88;3.75;;;-1.80;99.90;;;;;;5005031;28;20022;-77
2023/02/28 01:34:12;;;;;;;8.02;4.40;;;-1.80;99.90;;;;;;5006385;28;20017;-77
2023/02/28 01:36:37;;;;;;;6.45;3.78;;;-1.80;99.90;;;;;;5019969;28;20070;-78
2023/02/28 01:39:03;;;;;;;7.05;3.97;;;-1.90;99.90;;;;;;5018687;28;20083;-77
2023/02/28 01:41:30;;;;;;;11.73;3.92;;;-1.90;99.90;;;;;;5007622;28;20033;-77
2023/02/28 01:44:33;;;;;;;6.07;3.70;;;-1.90;99.90;;;;;;5006301;28;20090;-77
2023/02/28 01:46:59;;;;;;;10.07;4.00;;;-1.90;99.90;;;;;;5041159;28;20033;-77
2023/02/28 01:49:24;;;;;;;7.13;3.47;;;-1.80;99.90;;;;;;5020260;28;20090;-78
2023/02/28 01:51:51;;;;;;;6.97;4.28;;;-1.80;99.90;;;;;;5004572;28;20392;-77
2023/02/28 01:54:25;;;;;;;7.25;4.10;;;-1.90;99.90;;;;;;5022427;28;20021;-77
2023/02/28 01:56:59;;;;;;;7.60;3.88;;;-1.80;99.90;;;;;;5020041;28;20552;-78
2023/02/28 01:59:29;;;;;;;11.88;4.57;;;-1.90;99.90;;;;;;5010184;28;20033;-77
2023/02/28 02:01:55;;;;;;;9.38;4.30;;;-2.10;99.90;;;;;;5019763;28;20120;-77
2023/02/28 02:04:21;;;;;;;10.68;4.45;;;-2.00;99.90;;;;;;5020626;28;20099;-77
2023/02/28 02:06:47;;;;;;;11.32;3.53;;;-2.10;99.90;;;;;;4989262;28;20032;-77
2023/02/28 02:09:12;;;;;;;10.13;4.00;;;-2.10;99.90;;;;;;5009816;28;20056;-77
2023/02/28 02:11:40;;;;;;;6.95;3.83;;;-2.20;99.90;;;;;;4993602;28;20132;-77
2023/02/28 02:14:18;;;;;;;7.22;3.55;;;-2.20;99.90;;;;;;5019662;28;20021;-77
2023/02/28 02:17:05;;;;;;;6.80;3.78;;;-2.10;99.90;;;;;;5034259;28;20098;-77
2023/02/28 02:19:43;;;;;;;8.38;3.78;;;-2.10;99.90;;;;;;5009440;28;20167;-76
2023/02/28 02:22:28;;;;;;;7.68;3.58;;;-2.20;99.90;;;;;;5020850;28;20018;-77
2023/02/28 02:25:15;;;;;;;9.05;3.97;;;-2.20;99.90;;;;;;5022463;28;20029;-76
2023/02/28 02:28:18;;;;;;;8.05;3.30;;;-2.30;99.90;;;;;;5019734;28;20043;-77
2023/02/28 02:31:21;;;;;;;7.05;3.25;;;-2.20;99.90;;;;;;5007351;28;20032;-78
2023/02/28 02:34:00;;;;;;;5.72;3.53;;;-2.20;99.90;;;;;;5037764;28;20398;-77
2023/02/28 02:36:52;;;;;;;6.72;2.92;;;-2.30;99.90;;;;;;5006807;28;20030;-78
2023/02/28 02:39:39;;;;;;;5.70;3.47;;;-2.30;99.90;;;;;;5023031;28;20029;-77
2023/02/28 02:42:10;;;;;;;7.20;3.83;;;-2.30;99.90;;;;;;5019696;28;20021;-78
2023/02/28 02:44:59;;;;;;;7.15;3.70;;;-2.50;99.90;;;;;;5000916;28;20034;-77
2023/02/28 02:47:25;;;;;;;5.75;3.35;;;-2.50;99.90;;;;;;4991480;28;20037;-77
2023/02/28 02:49:52;;;;;;;9.88;3.97;;;-2.40;99.90;;;;;;5017800;28;20049;-77
2023/02/28 02:52:21;;;;;;;6.20;3.38;;;-2.50;99.90;;;;;;5008715;28;20411;-77
2023/02/28 02:54:46;;;;;;;8.57;4.03;;;-2.50;99.90;;;;;;5004943;28;20029;-77
2023/02/28 02:57:49;;;;;;;5.32;3.60;;;-2.50;99.90;;;;;;5000680;28;20028;-77
2023/02/28 03:00:16;;;;;;;8.13;3.58;;;-2.60;99.90;;;;;;5020814;28;20057;-76
2023/02/28 03:02:42;;;;;;;8.75;3.63;;;-2.70;99.90;;;;;;5011021;28;20025;-76
2023/02/28 03:05:33;;;;;;;5.10;3.00;;;-2.60;99.90;;;;;;4997638;28;20017;-76
2023/02/28 03:07:59;;;;;;;4.80;3.00;;;-2.50;99.90;;;;;;5005822;28;20036;-78
2023/02/28 03:10:36;;;;;;;9.38;3.60;;;-2.70;99.90;;;;;;5023170;28;20389;-77
2023/02/28 03:13:33;;;;;;;6.55;3.45;;;-2.70;99.90;;;;;;4993768;28;20021;-77
2023/02/28 03:16:17;;;;;;;;;;;-2.80;99.90;;;;;;5028941;28;20021;-76
2023/02/28 03:19:12;;;;;;;5.85;3.53;;;-2.80;99.90;;;;;;5043875;28;19913;-77
2023/02/28 03:21:46;;;;;;;7.47;3.50;;;-2.80;99.90;;;;;;5014943;28;20531;-76
2023/02/28 03:24:18;;;;;;;4.43;3.05;;;-2.90;99.90;;;;;;5010298;28;20020;-77
2023/02/28 03:26:45;;;;;;;8.88;3.85;;;-2.90;99.90;;;;;;5027623;28;20088;-76
2023/02/28 03:29:17;;;;;;;4.28;3.20;;;-2.90;99.90;;;;;;4992259;28;20514;-77
2023/02/28 03:31:46;;;;;;;7.13;3.40;;;-3.00;99.90;;;;;;5010282;28;20025;-77
2023/02/28 03:34:26;;;;;;;6.13;3.40;;;-3.00;99.90;;;;;;4992505;28;20025;-77
2023/02/28 03:36:55;;;;;;;4.75;3.33;;;-2.90;99.90;;;;;;5014168;28;20147;-77
2023/02/28 03:39:33;;;;;;;9.10;3.80;;;-2.80;99.90;;;;;;5005111;28;20064;-77
2023/02/28 03:42:05;;;;;;;6.55;3.63;;;-2.70;99.90;;;;;;5003923;28;20029;-76
2023/02/28 03:44:34;;;;;;;7.60;3.97;;;-2.70;99.90;;;;;;5022143;28;20412;-78
2023/02/28 03:47:14;;;;;;;7.90;3.47;;;-2.80;99.90;;;;;;5022545;28;20033;-77
2023/02/28 03:49:43;;;;;;;6.20;3.60;;;-3.00;99.90;;;;;;4994811;28;20032;-77
2023/02/28 03:52:09;;;;;;;6.25;3.08;;;-2.80;99.90;;;;;;5021919;28;20058;-77
2023/02/28 03:54:41;;;;;;;8.13;3.60;;;-2.80;99.90;;;;;;5022013;28;20116;-76
2023/02/28 03:57:27;;;;;;;6.18;3.80;;;-2.80;99.90;;;;;;5013628;28;20025;-76
2023/02/28 03:59:56;;;;;;;7.85;3.70;;;-2.90;99.90;;;;;;5013145;28;20112;-77
2023/02/28 04:02:22;;;;;;;5.93;3.53;;;-3.00;99.90;;;;;;5010294;28;20377;-75
2023/02/28 04:04:48;;;;;;;7.65;3.88;;;-3.10;99.90;;;;;;5005951;28;20094;-76
2023/02/28 04:07:14;;;;;;;8.32;3.53;;;-3.10;99.90;;;;;;5010237;28;20028;-77
2023/02/28 04:09:39;;;;;;;5.20;3.28;;;-3.20;99.90;;;;;;5008670;28;20041;-77
2023/02/28 04:12:05;;;;;;;9.98;3.95;;;-3.20;99.90;;;;;;5005409;28;20029;-77
2023/02/28 04:14:31;;;;;;;6.25;3.78;;;-3.20;99.90;;;;;;4989127;28;20021;-77
2023/02/28 04:16:56;;;;;;;6.43;3.70;;;-3.10;99.90;;;;;;5021411;28;20034;-76
2023/02/28 04:19:22;;;;;;;6.45;3.78;;;-3.10;99.90;;;;;;5005503;28;20102;-77
2023/02/28 04:21:52;;;;;;;5.00;3.42;;;-3.20;99.90;;;;;;5007517;28;20558;-77
2023/02/28 04:24:19;;;;;;;5.93;3.60;;;-3.30;99.90;;;;;;4996310;28;20024;-77
2023/02/28 04:26:47;;;;;;;6.18;3.13;;;-3.30;99.90;;;;;;5008959;28;20040;-77
2023/02/28 04:29:14;;;;;;;6.80;3.65;;;-3.40;99.90;;;;;;5007268;28;20383;-77
2023/02/28 04:31:39;;;;;;;7.47;3.63;;;-3.40;99.90;;;;;;5010729;28;20026;-77
2023/02/28 04:34:05;;;;;;;10.55;3.60;;;-3.40;99.90;;;;;;5005192;28;20025;-77
2023/02/28 04:36:31;;;;;;;8.68;3.72;;;-3.40;99.90;;;;;;5005263;28;20120;-77
2023/02/28 04:38:56;;;;;;;5.32;3.53;;;-3.40;99.90;;;;;;5023527;28;20088;-77
2023/02/28 04:41:22;;;;;;;7.18;3.70;;;-3.40;99.90;;;;;;5006509;28;20658;-77
2023/02/28 04:43:48;;;;;;;7.10;3.65;;;-3.50;99.90;;;;;;5009803;28;20080;-77
2023/02/28 04:46:13;;;;;;;6.55;3.45;;;-3.40;99.90;;;;;;5005369;28;20036;-75
2023/02/28 04:48:39;;;;;;;6.05;3.30;;;-3.40;99.90;;;;;;5006062;28;20496;-77
2023/02/28 04:51:06;;;;;;;5.60;3.05;;;-3.30;99.90;;;;;;5019680;28;20037;-77
2023/02/28 04:53:32;;;;;;;6.60;2.97;;;-3.40;99.90;;;;;;5026696;28;20024;-77
2023/02/28 04:55:58;;;;;;;7.57;3.97;;;-3.50;99.90;;;;;;5020741;28;20025;-77
2023/02/28 04:58:24;;;;;;;8.77;4.18;;;-3.40;99.90;;;;;;5005109;28;20025;-76
2023/02/28 05:00:50;;;;;;;7.03;3.50;;;-3.60;99.90;;;;;;5006053;28;20570;-77
2023/02/28 05:03:16;;;;;;;5.97;3.67;;;-3.50;99.90;;;;;;5035531;28;20396;-77
2023/02/28 05:05:41;;;;;;;5.88;3.30;;;-3.70;99.90;;;;;;5020341;28;20026;-77
2023/02/28 05:08:07;;;;;;;5.93;3.22;;;-3.60;99.90;;;;;;5040636;28;20511;-77
2023/02/28 05:10:33;;;;;;;7.22;3.45;;;-3.70;99.90;;;;;;5025276;28;20025;-77
2023/02/28 05:12:58;;;;;;;10.15;4.28;;;-3.80;99.90;;;;;;4983123;28;20018;-76
2023/02/28 05:15:24;;;;;;;9.55;3.40;;;-3.60;99.90;;;;;;5040531;28;20025;-77
2023/02/28 05:17:49;;;;;;;6.93;3.55;;;-3.50;99.90;;;;;;5037140;28;20132;-77
2023/02/28 05:20:15;;;;;;;7.13;3.33;;;-3.50;99.90;;;;;;5010475;28;20195;-77
2023/02/28 05:22:41;;;;;;;9.32;3.58;;;-3.60;99.90;;;;;;5003123;28;20025;-77
2023/02/28 05:25:09;;;;;;;6.80;3.67;;;-3.50;99.90;;;;;;5016446;28;20048;-75
2023/02/28 05:27:34;;;;;;;5.60;2.85;;;-3.50;99.90;;;;;;5009594;28;20029;-77
2023/02/28 05:30:03;;;;;;;7.57;3.33;;;-3.60;99.90;;;;;;5006310;28;20032;-77
2023/02/28 05:32:28;;;;;;;6.68;3.40;;;-3.60;99.90;;;;;;5009015;28;20028;-77
2023/02/28 05:34:54;;;;;;;6.35;3.47;;;-3.50;99.90;;;;;;5020850;28;20022;-77
2023/02/28 05:37:19;;;;;;;6.57;3.15;;;-3.60;99.90;;;;;;5007569;28;20028;-77
2023/02/28 05:39:45;;;;;;;9.43;4.07;;;-3.60;99.90;;;;;;4990266;28;20033;-77
2023/02/28 05:42:11;;;;;;;7.45;4.68;;;-3.50;99.90;;;;;;5008143;28;20374;-77
2023/02/28 05:44:36;;;;;;;5.28;3.90;;;-3.50;99.90;;;;;;5021610;28;20488;-76
2023/02/28 05:47:02;;;;;;;6.53;3.38;;;-3.50;99.90;;;;;;5020516;28;20098;-77
2023/02/28 05:49:27;;;;;;;6.25;4.00;;;-3.60;99.90;;;;;;5022801;28;20071;-76
2023/02/28 05:51:53;;;;;;;5.90;3.15;;;-3.70;99.90;;;;;;5004769;28;20028;-76
2023/02/28 05:54:18;;;;;;;7.10;4.65;;;-3.70;99.90;;;;;;5018967;28;20631;-76
2023/02/28 05:56:45;;;;;;;6.78;3.28;;;-3.80;99.90;;;;;;5017127;28;20013;-76
2023/02/28 05:59:12;;;;;;;9.15;3.10;;;-3.70;99.90;;;;;;5007534;28;20503;-76
2023/02/28 06:01:50;;;;;;;7.57;3.72;;;-3.70;99.90;;;;;;5019134;28;20531;-76
2023/02/28 06:04:18;;;;;;;9.55;3.95;;;-3.70;99.90;;;;;;5037596;28;20484;-77
2023/02/28 06:06:45;;;;;;;9.38;4.20;;;-3.80;99.90;;;;;;5003917;28;20047;-77
2023/02/28 06:09:11;;;;;;;11.85;4.38;;;-3.80;99.90;;;;;;5007224;28;20546;-76
2023/02/28 06:11:36;;;;;;;7.82;4.13;;;-3.80;99.90;;;;;;5006517;28;20532;-76
2023/02/28 06:14:02;;;;;;;8.85;3.97;;;-3.80;99.90;;;;;;5021617;28;20050;-77
2023/02/28 06:16:29;;;;;;;8.45;3.47;;;-3.80;99.90;;;;;;5003260;28;20064;-77
2023/02/28 06:18:57;;;;;;;8.35;4.13;;;-3.90;99.90;;;;;;5021187;28;20032;-76
2023/02/28 06:21:22;;;;;;;7.45;4.30;;;-3.90;99.90;;;;;;5007051;28;20257;-77
2023/02/28 06:23:48;;;;;;;5.20;3.60;;;-4.00;99.90;;;;;;5020680;28;20032;-77
2023/02/28 06:26:13;;;;;;;8.15;4.70;;;-3.80;99.90;;;;;;5022547;28;20117;-76
2023/02/28 06:28:39;;;;;;;9.35;4.10;;;-3.90;99.90;;;;;;5020380;28;20057;-77
2023/02/28 06:31:12;;;;;;;9.98;4.35;;;-3.90;99.90;;;;;;5019269;28;20056;-76
2023/02/28 06:33:38;;;;;;;8.23;4.22;;;-3.90;99.90;;;;;;5006411;28;20025;-76
2023/02/28 06:36:04;;;;;;;8.00;4.20;;;-4.00;99.90;;;;;;5005602;28;20540;-76
2023/02/28 06:38:30;;;;;;;8.93;4.43;;;-3.80;99.90;;;;;;5012544;28;20067;-76
2023/02/28 06:40:56;;;;;;;9.48;4.40;;;-3.70;99.90;;;;;;4994907;28;20036;-76
2023/02/28 06:43:22;;;;;;;9.73;4.30;;;-3.70;99.90;;;;;;5024636;28;20029;-75
2023/02/28 06:45:48;;;;;;;9.57;4.47;;;-3.70;99.90;;;;;;5024944;28;20021;-74
2023/02/28 06:48:13;;;;;;;10.88;4.25;;;-3.70;99.90;;;;;;5007657;28;20033;-76
2023/02/28 06:50:39;;;;;;;10.00;3.97;;;-3.80;99.90;;;;;;5010974;28;20033;-76
2023/02/28 06:53:04;;;;;;;11.50;4.65;;;-3.80;99.90;;;;;;5021134;28;20025;-76
2023/02/28 06:55:30;;;;;;;14.05;4.57;;;-3.80;99.90;;;;;;5009918;28;20380;-77
2023/02/28 06:57:56;;;;;;;9.88;4.68;;;-3.70;99.90;;;;;;5009658;28;20044;-76
2023/02/28 07:00:22;;;;;;;10.32;4.38;;;-3.60;99.90;;;;;;5025853;28;20432;-77
2023/02/28 07:02:48;;;;;;;7.38;5.15;;;-3.60;99.90;;;;;;5011782;28;20035;-76
2023/02/28 07:05:13;;;;;;;9.25;5.03;;;-3.50;99.90;;;;;;5040241;28;20025;-76
2023/02/28 07:07:43;;;;;;;11.15;6.53;;;-3.50;99.90;;;;;;5014244;28;20445;-76
2023/02/28 07:10:12;;;;;;;24.08;12.88;;;-3.40;99.90;;;;;;5003976;28;20025;-76
2023/02/28 07:12:38;;;;;;;27.27;17.55;;;-3.40;99.90;;;;;;4998354;28;20369;-76
2023/02/28 07:15:05;;;;;;;21.30;13.20;;;-3.50;99.90;;;;;;5008944;28;20087;-75
2023/02/28 07:17:31;;;;;;;12.27;6.88;;;-3.30;99.90;;;;;;4991665;28;20756;-77
2023/02/28 07:19:56;;;;;;;10.30;5.88;;;-3.30;99.90;;;;;;5004478;28;20586;-75
2023/02/28 07:22:22;;;;;;;8.27;5.38;;;-3.30;99.90;;;;;;5020725;28;20394;-76
2023/02/28 07:24:47;;;;;;;8.50;5.07;;;-3.30;99.90;;;;;;4989592;28;20067;-77
2023/02/28 07:27:23;;;;;;;7.32;4.95;;;-3.20;99.90;;;;;;5009409;28;20021;-76
2023/02/28 07:29:51;;;;;;;9.05;4.90;;;-3.20;99.90;;;;;;5026573;28;20729;-76
2023/02/28 07:32:18;;;;;;;8.10;4.82;;;-3.10;99.90;;;;;;5026606;28;20074;-76
2023/02/28 07:34:44;;;;;;;10.10;5.80;;;-3.00;99.90;;;;;;5010907;28;20057;-76
2023/02/28 07:37:09;;;;;;;10.38;5.55;;;-2.90;99.90;;;;;;4978253;28;20087;-75
2023/02/28 07:39:35;;;;;;;11.68;5.97;;;-3.00;99.90;;;;;;5040439;28;20094;-74
2023/02/28 07:42:04;;;;;;;8.45;5.05;;;-2.80;99.90;;;;;;5018258;28;20365;-77
2023/02/28 07:44:30;;;;;;;11.05;5.22;;;-2.70;99.90;;;;;;5020992;28;20075;-75
2023/02/28 07:46:55;;;;;;;8.18;5.30;;;-2.60;99.90;;;;;;5010493;28;20105;-75
2023/02/28 07:49:21;;;;;;;9.23;5.50;;;-2.50;99.90;;;;;;5010288;28;20251;-75
2023/02/28 07:51:47;;;;;;;10.32;5.22;;;-2.40;99.90;;;;;;5008198;28;20025;-76
2023/02/28 07:54:13;;;;;;;7.93;4.50;;;-2.50;99.90;;;;;;4995296;28;20017;-76
2023/02/28 07:56:39;;;;;;;11.20;5.18;;;-2.20;99.90;;;;;;4994270;28;20083;-75
2023/02/28 07:59:04;;;;;;;12.45;4.13;;;-2.10;99.90;;;;;;4996833;28;20025;-77
2023/02/28 08:01:30;;;;;;;10.88;4.35;;;-2.10;99.90;;;;;;5041197;28;20052;-75
2023/02/28 08:03:56;;;;;;;7.00;4.70;;;-1.90;99.90;;;;;;5019717;28;20033;-75
2023/02/28 08:06:23;;;;;;;7.10;4.20;;;-2.10;99.90;;;;;;5019766;28;20095;-75
2023/02/28 08:08:48;;;;;;;7.40;4.32;;;-2.00;99.90;;;;;;4985075;28;20033;-74
2023/02/28 08:11:14;;;;;;;11.02;4.63;;;-1.70;99.90;;;;;;5011518;28;20025;-75
2023/02/28 08:13:42;;;;;;;9.15;4.63;;;-1.60;99.90;;;;;;4996259;28;20033;-74
2023/02/28 08:16:07;;;;;;;7.13;4.18;;;-1.60;99.90;;;;;;5020957;28;20447;-74
2023/02/28 08:18:33;;;;;;;10.25;5.20;;;-1.60;99.90;;;;;;4988828;28;20028;-75
2023/02/28 08:20:59;;;;;;;7.03;4.60;;;-1.40;99.90;;;;;;5022672;28;20033;-75
2023/02/28 08:23:24;;;;;;;8.90;5.35;;;-1.40;99.90;;;;;;5009147;28;20383;-75
2023/02/28 08:25:54;;;;;;;8.93;5.15;;;-1.50;99.90;;;;;;5020514;28;20045;-75
2023/02/28 08:28:20;;;;;;;12.75;5.72;;;-1.30;99.90;;;;;;5008529;28;20053;-74
2023/02/28 08:30:46;;;;;;;11.50;6.05;;;-1.30;99.90;;;;;;4960172;28;20051;-74
2023/02/28 08:33:11;;;;;;;6.28;3.92;;;-1.00;99.90;;;;;;5021106;28;20580;-75
2023/02/28 08:35:37;;;;;;;9.25;4.28;;;-0.70;99.90;;;;;;5017937;28;20523;-77
2023/02/28 08:38:02;;;;;;;8.82;5.40;;;-0.50;99.90;;;;;;5018821;28;20063;-76
2023/02/28 08:40:28;;;;;;;10.73;5.30;;;-0.30;99.90;;;;;;5012935;28;20111;-75
2023/02/28 08:42:54;;;;;;;10.48;5.13;;;-0.20;99.90;;;;;;5042330;28;20053;-76
2023/02/28 08:45:19;;;;;;;9.60;5.63;;;0.00;99.90;;;;;;4992012;28;20650;-76
2023/02/28 08:47:45;;;;;;;7.25;4.43;;;-0.70;99.90;;;;;;5006135;28;20053;-76
2023/02/28 08:50:10;;;;;;;9.45;5.30;;;-0.50;99.90;;;;;;5017769;28;20433;-76
2023/02/28 08:52:38;;;;;;;6.75;3.78;;;-0.20;99.90;;;;;;5023464;28;20477;-77
2023/02/28 08:55:04;;;;;;;6.70;4.32;;;0.20;99.90;;;;;;4997073;28;20021;-75
2023/02/28 08:57:29;;;;;;;6.63;4.40;;;-0.10;99.90;;;;;;5004012;28;20513;-75
2023/02/28 08:59:55;;;;;;;9.68;4.53;;;-0.60;99.90;;;;;;5004457;28;20040;-75
2023/02/28 09:02:21;;;;;;;6.90;4.05;;;-0.20;99.90;;;;;;5020162;28;20026;-75
2023/02/28 09:04:46;;;;;;;8.32;4.32;;;0.00;99.90;;;;;;5018930;28;20026;-75
2023/02/28 09:07:12;;;;;;;8.23;3.72;;;-0.30;99.90;;;;;;5034967;28;20032;-75
2023/02/28 09:09:37;;;;;;;5.30;3.65;;;0.00;99.90;;;;;;5019884;28;20052;-75
2023/02/28 09:12:04;;;;;;;6.03;3.72;;;0.40;99.90;;;;;;5017519;28;20032;-75
2023/02/28 09:14:30;;;;;;;7.07;4.07;;;0.30;99.90;;;;;;5006904;28;20025;-76
2023/02/28 09:16:56;;;;;;;5.97;3.42;;;0.10;99.90;;;;;;4995400;28;20590;-76
2023/02/28 09:19:22;;;;;;;6.88;3.47;;;0.00;99.90;;;;;;5003450;28;20175;-76
2023/02/28 09:21:47;;;;;;;4.80;3.13;;;0.10;99.90;;;;;;5003186;28;20037;-74
2023/02/28 09:24:14;;;;;;;7.30;3.25;;;0.90;99.90;;;;;;5017043;28;20500;-77
2023/02/28 09:26:40;;;;;;;6.43;2.83;;;1.10;99.90;;;;;;5005199;28;20037;-74
2023/02/28 09:29:06;;;;;;;6.80;3.25;;;1.20;99.90;;;;;;5003137;28;20036;-76
2023/02/28 09:31:32;;;;;;;5.88;3.10;;;1.50;99.90;;;;;;5017826;28;20036;-76
2023/02/28 09:33:58;;;;;;;5.70;3.10;;;1.30;99.90;;;;;;5002535;28;20053;-76
2023/02/28 09:36:24;;;;;;;4.40;2.38;;;1.30;99.90;;;;;;4986740;28;20505;-76
2023/02/28 09:38:52;;;;;;;4.68;2.78;;;1.00;99.90;;;;;;5002760;28;20041;-77
2023/02/28 09:41:20;;;;;;;4.53;2.45;;;1.20;99.90;;;;;;5015663;28;20037;-76
2023/02/28 09:43:53;;;;;;;2.63;2.30;;;1.70;99.90;;;;;;5017834;28;20030;-76
2023/02/28 09:46:33;;;;;;;3.65;2.33;;;1.20;99.90;;;;;;5004548;28;20038;-77
2023/02/28 09:49:05;;;;;;;5.25;2.45;;;1.50;99.90;;;;;;4987676;28;20033;-75
2023/02/28 09:51:35;;;;;;;2.80;2.00;;;2.10;99.90;;;;;;5001284;28;20068;-75
2023/02/28 09:54:00;;;;;;;4.05;2.15;;;2.10;99.90;;;;;;5014311;28;20033;-75
2023/02/28 09:56:35;;;;;;;3.55;2.13;;;2.60;99.90;;;;;;5018939;28;20041;-76
2023/02/28 09:59:03;;;;;;;3.03;2.08;;;1.70;99.90;;;;;;5036277;28;20608;-76
2023/02/28 10:01:48;;;;;;;4.30;1.88;;;1.50;99.90;;;;;;5037225;28;20040;-76
2023/02/28 10:04:32;;;;;;;2.58;2.20;;;2.60;99.90;;;;;;5024501;28;20492;-75
2023/02/28 10:06:57;;;;;;;3.42;2.20;;;2.00;99.90;;;;;;5018708;28;20132;-74
2023/02/28 10:09:25;;;;;;;3.38;1.73;;;2.10;99.90;;;;;;5002735;28;21612;-76
2023/02/28 10:11:52;;;;;;;3.30;2.30;;;2.80;99.90;;;;;;5018152;28;20033;-75
2023/02/28 10:14:25;;;;;;;2.85;1.80;;;2.20;99.90;;;;;;5008130;28;20421;-75
2023/02/28 10:17:02;;;;;;;3.97;2.40;;;2.60;99.90;;;;;;5004639;28;20515;-76
2023/02/28 10:20:11;;;;;;;3.13;1.65;;;2.50;99.90;;;;;;5017255;28;20052;-76
2023/02/28 10:22:59;;;;;;;4.20;2.20;;;1.60;99.90;;;;;;5030902;28;20044;-76
2023/02/28 10:25:27;;;;;;;3.33;2.30;;;1.50;99.90;;;;;;5020041;28;20040;-76
2023/02/28 10:27:53;;;;;;;2.17;1.55;;;1.20;99.90;;;;;;5016950;28;20060;-76
2023/02/28 10:30:19;;;;;;;2.22;1.52;;;1.90;99.90;;;;;;5006071;28;20122;-76
2023/02/28 10:32:50;;;;;;;3.50;1.73;;;2.60;99.90;;;;;;5005961;28;20052;-76
2023/02/28 10:35:23;;;;;;;3.55;1.67;;;1.70;99.90;;;;;;5025137;28;20056;-77
2023/02/28 10:37:53;;;;;;;2.00;1.40;;;2.40;99.90;;;;;;5015872;28;20053;-77
2023/02/28 10:40:22;;;;;;;3.78;1.23;;;2.90;99.90;;;;;;5006934;28;20033;-77
2023/02/28 10:42:57;;;;;;;4.88;2.25;;;3.80;99.90;;;;;;5038823;28;20109;-76
2023/02/28 10:45:23;;;;;;;2.17;1.23;;;4.10;99.90;;;;;;5025632;28;20042;-77
2023/02/28 10:48:02;;;;;;;2.20;1.70;;;4.40;99.90;;;;;;5003425;28;20048;-77
2023/02/28 10:50:33;;;;;;;1.83;1.30;;;4.90;99.90;;;;;;5014523;28;20029;-78
2023/02/28 10:53:37;;;;;;;1.60;1.30;;;4.60;99.90;;;;;;5003757;28;20045;-77
2023/02/28 10:56:09;;;;;;;3.53;1.50;;;4.90;99.90;;;;;;5017278;28;20408;-76
2023/02/28 10:58:48;;;;;;;3.53;1.50;;;4.30;99.90;;;;;;5016603;28;20028;-76
2023/02/28 11:01:18;;;;;;;2.55;1.08;;;3.90;99.90;;;;;;5033578;28;20052;-77
2023/02/28 11:03:44;;;;;;;4.63;1.83;;;4.10;99.90;;;;;;4994202;28;20025;-76
2023/02/28 11:06:33;;;;;;;2.33;1.65;;;5.00;99.90;;;;;;5005001;28;20783;-77
2023/02/28 11:09:00;;;;;;;6.07;1.60;;;4.80;99.90;;;;;;5008331;28;20041;-77
2023/02/28 11:11:27;;;;;;;2.90;1.35;;;3.80;99.90;;;;;;5020558;28;20087;-79
2023/02/28 11:13:57;;;;;;;2.15;1.30;;;4.20;99.90;;;;;;4992484;28;20105;-77
2023/02/28 11:16:34;;;;;;;1.55;1.30;;;4.10;99.90;;;;;;4989199;28;20044;-77
2023/02/28 11:18:59;;;;;;;5.38;1.58;;;4.10;99.90;;;;;;5017184;28;20045;-78
2023/02/28 11:21:28;;;;;;;6.25;1.77;;;3.70;99.90;;;;;;5015374;28;20455;-77
2023/02/28 11:24:02;;;;;;;3.45;1.50;;;3.50;99.90;;;;;;5036853;28;20029;-77
2023/02/28 11:26:36;;;;;;;1.80;1.67;;;3.50;99.90;;;;;;5004906;28;20043;-78
2023/02/28 11:29:20;;;;;;;4.40;1.80;;;3.40;99.90;;;;;;5020774;28;20086;-79
2023/02/28 11:32:05;;;;;;;2.00;1.80;;;3.20;99.90;;;;;;5018901;28;20404;-78
2023/02/28 11:34:31;;;;;;;8.75;1.90;;;3.50;99.90;;;;;;5011777;28;20037;-77
2023/02/28 11:36:59;;;;;;;2.70;1.92;;;4.40;99.90;;;;;;5023284;28;20578;-78
2023/02/28 11:39:25;;;;;;;2.38;1.60;;;4.40;99.90;;;;;;5007230;28;20440;-77
2023/02/28 11:42:38;;;;;;;2.29;1.61;;;4.30;99.90;;;;;;4618528;28;10000457;-78
2023/02/28 11:45:06;;;;;;;3.63;1.85;;;3.90;99.90;;;;;;5016994;28;20296;-77
2023/02/28 11:47:55;;;;;;;2.85;1.88;;;4.20;99.90;;;;;;5017262;28;20125;-76
2023/02/28 11:50:23;;;;;;;3.25;1.98;;;4.70;99.90;;;;;;5015889;28;20397;-77
2023/02/28 11:52:56;;;;;;;4.68;1.88;;;4.30;99.90;;;;;;5016932;28;20061;-77
2023/02/28 11:55:40;;;;;;;1.75;1.42;;;4.20;99.90;;;;;;5008621;28;20037;-78
2023/02/28 11:58:46;;;;;;;4.78;2.13;;;4.20;99.90;;;;;;4990782;28;20048;-77
2023/02/28 12:01:18;;;;;;;3.42;1.90;;;4.00;99.90;;;;;;5021385;28;20148;-76
2023/02/28 12:04:09;;;;;;;4.00;1.98;;;4.30;99.90;;;;;;5018878;28;20032;-77
2023/02/28 12:06:45;;;;;;;2.47;1.73;;;3.90;99.90;;;;;;5026938;28;20037;-77
2023/02/28 12:09:35;;;;;;;2.17;1.48;;;3.90;99.90;;;;;;5022538;28;20534;-78
2023/02/28 12:12:15;;;;;;;5.88;1.60;;;4.80;99.90;;;;;;5007145;28;20528;-78
2023/02/28 12:14:59;;;;;;;2.70;1.50;;;5.00;99.90;;;;;;4985522;28;20531;-78
2023/02/28 12:18:05;;;;;;;4.45;2.05;;;4.70;99.90;;;;;;5004732;28;20044;-77
2023/02/28 12:20:38;;;;;;;3.90;1.90;;;5.00;99.90;;;;;;5019318;28;20041;-77
2023/02/28 12:23:31;;;;;;;2.42;1.58;;;5.40;99.90;;;;;;4998781;28;20386;-77
2023/02/28 12:26:24;;;;;;;4.22;1.90;;;5.80;99.90;;;;;;5009405;28;20116;-77
2023/02/28 12:28:52;;;;;;;3.03;1.65;;;6.10;99.90;;;;;;5005389;28;20072;-76
2023/02/28 12:31:26;;;;;;;3.78;1.70;;;5.90;99.90;;;;;;5016644;28;20045;-76
2023/02/28 12:33:56;;;;;;;2.92;1.85;;;6.30;99.90;;;;;;4986945;28;20124;-77
2023/02/28 12:36:23;;;;;;;2.88;1.80;;;6.70;99.90;;;;;;5020186;28;20033;-77
2023/02/28 12:39:02;;;;;;;3.83;1.83;;;5.20;99.90;;;;;;5001964;28;20060;-77
2023/02/28 12:41:56;;;;;;;2.72;1.88;;;4.80;99.90;;;;;;4996239;28;20032;-77
2023/02/28 12:44:28;;;;;;;4.30;2.03;;;4.90;99.90;;;;;;5006811;28;20033;-77
2023/02/28 12:46:59;;;;;;;2.72;1.95;;;4.50;99.90;;;;;;5021472;28;20552;-77
2023/02/28 12:49:58;;;;;;;4.90;2.05;;;4.60;99.90;;;;;;4985035;28;21089;-77
2023/02/28 12:52:37;;;;;;;2.38;1.75;;;5.60;99.90;;;;;;5003037;28;20465;-77
2023/02/28 12:55:13;;;;;;;12.00;2.00;;;5.70;99.90;;;;;;5002417;28;20045;-77
2023/02/28 12:57:39;;;;;;;;;;;5.70;99.90;;;;;;5000250;28;20511;-77
2023/02/28 13:00:21;;;;;;;6.23;3.13;;;5.80;99.90;;;;;;5023417;28;19913;-77
2023/02/28 13:03:14;;;;;;;2.80;2.00;;;5.60;99.90;;;;;;5005064;28;20403;-77
2023/02/28 13:06:06;;;;;;;3.10;1.75;;;6.30;99.90;;;;;;4993120;28;20036;-77